Time;durP1;ratioP1;P1;durP2;ratioP2;P2;SDS_P1;SDS_P2;PMS_P1;PMS_P2;Temp;Humidity;BMP_temperature;BMP_pressure;BME280_temperature;BME280_humidity;BME280_pressure;Samples;Min_cycle;Max_cycle;Signal;HPM_P1;HPM_P2
2023/04/22 00:00:21;;;;;;;6.28;4.78;;;;;;;6.41;95.33;100782.16;4907844;29;20126;-76
2023/04/22 00:02:46;;;;;;;6.78;5.50;;;;;;;6.36;96.48;100783.06;4896646;29;20043;-76
2023/04/22 00:05:17;;;;;;;7.38;5.47;;;;;;;6.33;97.70;100783.06;4896659;29;20544;-76
2023/04/22 00:07:42;;;;;;;8.37;5.30;;;;;;;6.29;97.12;100779.59;4889713;29;20123;-77
2023/04/22 00:10:10;;;;;;;6.82;5.15;;;;;;;6.30;97.76;100788.34;4913303;29;20124;-77
2023/04/22 00:12:36;;;;;;;9.55;5.88;;;;;;;6.28;98.33;100782.22;4896633;29;20047;-77
2023/04/22 00:15:01;;;;;;;7.00;5.32;;;;;;;6.24;97.37;100782.25;4892890;29;20036;-76
2023/04/22 00:17:27;;;;;;;6.55;5.43;;;;;;;6.22;96.58;100770.00;4892609;29;20132;-77
2023/04/22 00:19:53;;;;;;;8.25;5.95;;;;;;;6.21;97.81;100769.13;4907975;29;20046;-77
2023/04/22 00:22:18;;;;;;;8.73;5.88;;;;;;;6.17;98.09;100762.13;4881105;29;20113;-77
2023/04/22 00:24:44;;;;;;;7.75;5.50;;;;;;;6.21;98.46;100765.63;4896411;29;20492;-77
2023/04/22 00:27:10;;;;;;;6.68;5.22;;;;;;;6.17;98.86;100758.63;4896277;29;20052;-77
2023/04/22 00:29:35;;;;;;;8.85;5.57;;;;;;;6.14;98.93;100759.50;4864048;29;20039;-77
2023/04/22 00:32:01;;;;;;;6.47;5.22;;;;;;;6.09;97.33;100769.19;4896894;29;20127;-77
2023/04/22 00:34:27;;;;;;;9.90;6.20;;;;;;;6.08;98.86;100772.66;4894244;29;20052;-77
2023/04/22 00:36:52;;;;;;;8.50;6.05;;;;;;;6.03;100.00;100772.72;4900260;29;20483;-77
2023/04/22 00:39:18;;;;;;;8.73;6.47;;;;;;;5.99;100.00;100778.84;4899507;29;20040;-77
2023/04/22 00:41:43;;;;;;;8.20;6.38;;;;;;;5.95;99.08;100771.84;4917533;29;20043;-77
2023/04/22 00:44:11;;;;;;;9.38;6.75;;;;;;;5.96;99.17;100772.72;4902158;29;20395;-77
2023/04/22 00:46:38;;;;;;;12.23;7.40;;;;;;;5.96;99.90;100775.34;4901048;29;20055;-77
2023/04/22 00:49:04;;;;;;;10.55;7.45;;;;;;;5.95;99.30;100781.50;4883063;29;20142;-77
2023/04/22 00:51:32;;;;;;;12.38;7.38;;;;;;;5.96;100.00;100781.50;4899950;29;20119;-77
2023/04/22 00:53:58;;;;;;;10.95;7.20;;;;;;;5.91;99.64;100770.09;4885650;29;20092;-77
2023/04/22 00:56:27;;;;;;;10.30;7.82;;;;;;;5.93;99.79;100775.34;4884177;29;20480;-78
2023/04/22 00:58:54;;;;;;;11.55;8.68;;;;;;;5.88;99.50;100772.72;4911774;29;20561;-78
2023/04/22 01:01:20;;;;;;;15.32;8.90;;;;;;;5.88;100.00;100772.72;4883225;29;20472;-78
2023/04/22 01:03:48;;;;;;;12.55;8.48;;;;;;;5.84;100.00;100773.63;4899723;29;20127;-78
2023/04/22 01:06:15;;;;;;;11.90;8.27;;;;;;;5.87;100.00;100773.63;4899913;29;20491;-78
2023/04/22 01:08:41;;;;;;;11.35;8.50;;;;;;;5.87;100.00;100776.25;4881432;29;20040;-78
2023/04/22 01:11:06;;;;;;;12.75;7.47;;;;;;;5.88;100.00;100770.09;4889475;29;20357;-78
2023/04/22 01:13:32;;;;;;;12.27;7.95;;;;;;;5.88;100.00;100756.94;4898110;29;20056;-78
2023/04/22 01:16:00;;;;;;;11.23;7.93;;;;;;;5.89;100.00;100766.59;4882813;29;20496;-78
2023/04/22 01:18:25;;;;;;;14.13;8.55;;;;;;;5.96;100.00;100762.22;4899690;29;20040;-77
2023/04/22 01:20:51;;;;;;;8.95;7.13;;;;;;;5.99;100.00;100765.72;4882512;29;20123;-77
2023/04/22 01:23:21;;;;;;;10.52;7.65;;;;;;;6.03;100.00;100766.56;4899811;29;20516;-77
2023/04/22 01:25:48;;;;;;;8.77;6.82;;;;;;;6.08;100.00;100761.28;4902729;29;20432;-77
2023/04/22 01:28:15;;;;;;;9.88;7.90;;;;;;;6.11;100.00;100754.28;4890951;29;20067;-78
2023/04/22 01:30:42;;;;;;;13.20;7.78;;;;;;;6.14;100.00;100756.03;4902283;29;20083;-77
2023/04/22 01:33:08;;;;;;;10.27;7.95;;;;;;;6.18;100.00;100768.25;4876902;29;20465;-78
2023/04/22 01:35:35;;;;;;;8.80;7.40;;;;;;;6.19;100.00;100752.47;4898198;29;20433;-78
2023/04/22 01:38:06;;;;;;;10.13;7.82;;;;;;;6.17;100.00;100748.97;4891047;29;20048;-78
2023/04/22 01:40:33;;;;;;;10.80;8.13;;;;;;;6.25;100.00;100757.69;4898169;29;20075;-78
2023/04/22 01:42:59;;;;;;;10.63;7.57;;;;;;;6.28;100.00;100763.81;4897874;29;20037;-78
2023/04/22 01:45:26;;;;;;;10.88;7.95;;;;;;;6.32;100.00;100765.56;4898552;29;20067;-78
2023/04/22 01:47:52;;;;;;;10.48;7.63;;;;;;;6.33;100.00;100748.88;4899049;29;20322;-78
2023/04/22 01:50:19;;;;;;;9.90;7.90;;;;;;;6.35;100.00;100750.63;4902987;29;20047;-78
2023/04/22 01:52:45;;;;;;;10.25;7.85;;;;;;;6.37;100.00;100750.63;4902323;29;20099;-78
2023/04/22 01:55:10;;;;;;;10.38;7.63;;;;;;;6.39;100.00;100752.34;4902648;29;20041;-78
2023/04/22 01:57:36;;;;;;;9.02;7.15;;;;;;;6.37;100.00;100750.63;4885945;29;20064;-78
2023/04/22 02:00:04;;;;;;;11.40;8.25;;;;;;;6.35;100.00;100745.34;4926988;28;20036;-78
2023/04/22 02:02:38;;;;;;;11.52;7.93;;;;;;;6.39;100.00;100749.72;4904563;29;20039;-78
2023/04/22 02:05:05;;;;;;;9.93;7.65;;;;;;;6.38;100.00;100753.25;4905390;29;20045;-78
2023/04/22 02:07:30;;;;;;;10.45;7.80;;;;;;;6.41;100.00;100752.38;4918404;29;20036;-78
2023/04/22 02:09:56;;;;;;;12.15;8.30;;;;;;;6.48;100.00;100748.81;4915892;29;20506;-78
2023/04/22 02:12:21;;;;;;;12.02;8.00;;;;;;;6.52;100.00;100744.38;4928277;28;20028;-78
2023/04/22 02:14:47;;;;;;;13.70;9.90;;;;;;;6.55;100.00;100741.72;4907681;29;20520;-78
2023/04/22 02:17:13;;;;;;;10.20;7.65;;;;;;;6.56;100.00;100740.88;4927255;29;20074;-78
2023/04/22 02:19:38;;;;;;;9.65;7.28;;;;;;;6.60;100.00;100739.94;4916071;29;20438;-78
2023/04/22 02:22:04;;;;;;;11.10;7.45;;;;;;;6.65;100.00;100740.78;4919891;28;20417;-77
2023/04/22 02:24:30;;;;;;;8.88;7.30;;;;;;;6.66;100.00;100732.88;4915015;29;20036;-77
2023/04/22 02:26:57;;;;;;;8.15;6.60;;;;;;;6.75;100.00;100737.22;4931946;29;20506;-77
2023/04/22 02:29:23;;;;;;;12.60;7.50;;;;;;;6.74;100.00;100734.59;4932052;29;20409;-78
2023/04/22 02:31:49;;;;;;;8.90;7.15;;;;;;;6.75;100.00;100729.31;4908004;29;20057;-78
2023/04/22 02:34:15;;;;;;;10.23;7.03;;;;;;;6.72;100.00;100737.22;4911194;29;20091;-77
2023/04/22 02:36:40;;;;;;;9.48;7.85;;;;;;;6.67;100.00;100731.13;4909918;29;20045;-77
2023/04/22 02:39:07;;;;;;;9.80;8.27;;;;;;;6.66;100.00;100732.00;4898533;29;20076;-77
2023/04/22 02:41:34;;;;;;;11.70;8.70;;;;;;;6.64;100.00;100731.16;4898844;29;20044;-77
2023/04/22 02:43:59;;;;;;;10.18;8.05;;;;;;;6.66;100.00;100732.88;4890139;29;20449;-77
2023/04/22 02:46:26;;;;;;;10.75;7.70;;;;;;;6.64;100.00;100728.50;4897116;29;20035;-77
2023/04/22 02:48:51;;;;;;;9.38;7.63;;;;;;;6.64;100.00;100729.38;4906451;29;20096;-77
2023/04/22 02:51:17;;;;;;;9.57;7.05;;;;;;;6.62;100.00;100720.63;4895436;29;20083;-77
2023/04/22 02:53:42;;;;;;;9.50;6.72;;;;;;;6.61;100.00;100721.50;4894617;29;20037;-77
2023/04/22 02:56:08;;;;;;;9.82;7.50;;;;;;;6.61;100.00;100721.50;4881085;29;20067;-77
2023/04/22 02:58:34;;;;;;;9.88;6.90;;;;;;;6.59;100.00;100712.75;4914496;29;20341;-78
2023/04/22 03:00:59;;;;;;;9.18;7.13;;;;;;;6.62;100.00;100717.13;4888124;29;20039;-77
2023/04/22 03:03:25;;;;;;;8.57;6.90;;;;;;;6.65;100.00;100711.81;4895830;29;20050;-77
2023/04/22 03:05:51;;;;;;;10.07;7.32;;;;;;;6.64;100.00;100715.34;4917000;29;20059;-77
2023/04/22 03:08:18;;;;;;;9.30;7.97;;;;;;;6.64;100.00;100713.59;4887111;29;20038;-78
2023/04/22 03:10:43;;;;;;;8.52;7.18;;;;;;;6.65;100.00;100711.81;4886515;29;20448;-78
2023/04/22 03:13:13;;;;;;;8.88;7.57;;;;;;;6.63;100.00;100703.09;4903710;29;20048;-78
2023/04/22 03:15:42;;;;;;;12.63;8.70;;;;;;;6.63;100.00;100711.00;4885176;29;20047;-78
2023/04/22 03:18:07;;;;;;;8.63;7.32;;;;;;;6.60;100.00;100701.38;4899831;29;20047;-78
2023/04/22 03:20:34;;;;;;;12.68;8.18;;;;;;;6.59;100.00;100710.13;4899401;29;20470;-78
2023/04/22 03:22:59;;;;;;;12.20;7.93;;;;;;;6.58;100.00;100710.16;4891562;29;20047;-78
2023/04/22 03:25:26;;;;;;;9.57;7.65;;;;;;;6.58;100.00;100711.03;4881618;29;20131;-78
2023/04/22 03:27:54;;;;;;;9.38;7.72;;;;;;;6.55;100.00;100700.53;4892619;29;20044;-78
2023/04/22 03:30:20;;;;;;;9.63;7.75;;;;;;;6.57;100.00;100697.88;4893242;29;20092;-78
2023/04/22 03:32:46;;;;;;;11.52;7.30;;;;;;;6.58;100.00;100692.59;4894047;29;20143;-78
2023/04/22 03:35:18;;;;;;;;;;;;;;;6.65;100.00;100694.31;4881025;29;20033;-78
2023/04/22 03:37:46;;;;;;;9.02;6.72;;;;;;;6.61;100.00;100695.22;4904753;29;19934;-78
2023/04/22 03:40:16;;;;;;;8.38;7.32;;;;;;;6.61;100.00;100695.22;4914996;29;20135;-77
2023/04/22 03:42:42;;;;;;;11.40;7.35;;;;;;;6.64;100.00;100691.69;4901569;29;20445;-77
2023/04/22 03:45:07;;;;;;;9.90;8.35;;;;;;;6.65;100.00;100677.63;4914817;29;20501;-77
2023/04/22 03:47:37;;;;;;;8.75;7.70;;;;;;;6.66;100.00;100682.00;4917410;29;20091;-77
2023/04/22 03:50:13;;;;;;;8.90;7.85;;;;;;;6.65;100.00;100682.88;4918348;29;20095;-77
2023/04/22 03:52:39;;;;;;;9.75;7.18;;;;;;;6.60;100.00;100674.16;4917214;28;20040;-78
2023/04/22 03:55:05;;;;;;;9.38;8.18;;;;;;;6.61;100.00;100682.06;4904687;29;20392;-77
2023/04/22 03:57:31;;;;;;;8.68;7.00;;;;;;;6.62;100.00;100675.03;4909423;29;20496;-77
2023/04/22 03:59:58;;;;;;;9.07;7.38;;;;;;;6.60;100.00;100669.78;4928607;29;20040;-77
2023/04/22 04:02:25;;;;;;;10.57;8.13;;;;;;;6.63;100.00;100671.53;4902951;29;20059;-77
2023/04/22 04:04:51;;;;;;;8.93;7.85;;;;;;;6.62;100.00;100677.66;4899001;29;20039;-77
2023/04/22 04:07:17;;;;;;;10.23;8.13;;;;;;;6.58;100.00;100671.56;4885868;29;20035;-77
2023/04/22 04:09:43;;;;;;;9.95;7.60;;;;;;;6.58;100.00;100668.06;4929987;28;20036;-77
2023/04/22 04:12:09;;;;;;;10.07;8.10;;;;;;;6.58;100.00;100660.16;4912454;29;20500;-77
2023/04/22 04:14:40;;;;;;;;;;;;;;;6.65;100.00;100661.84;4930861;29;20283;-77
2023/04/22 04:17:08;;;;;;;10.20;7.60;;;;;;;6.60;100.00;100659.28;4898969;29;20294;-77
2023/04/22 04:19:34;;;;;;;9.13;7.75;;;;;;;6.58;100.00;100660.16;4903893;29;20029;-77
2023/04/22 04:22:01;;;;;;;12.40;8.50;;;;;;;6.58;100.00;100662.81;4914434;29;20044;-77
2023/04/22 04:24:28;;;;;;;10.52;7.97;;;;;;;6.58;100.00;100658.41;4923732;29;20045;-77
2023/04/22 04:27:02;;;;;;;8.52;7.60;;;;;;;6.57;100.00;100658.41;4908649;29;20040;-77
2023/04/22 04:29:34;;;;;;;11.35;7.65;;;;;;;6.58;100.00;100666.28;4913998;29;20069;-77
2023/04/22 04:32:09;;;;;;;10.85;7.20;;;;;;;6.56;100.00;100657.53;4914896;29;20048;-77
2023/04/22 04:34:36;;;;;;;10.85;7.68;;;;;;;6.56;100.00;100652.28;4901103;29;20036;-77
2023/04/22 04:37:02;;;;;;;9.95;8.38;;;;;;;6.54;100.00;100648.78;4917897;29;20117;-77
2023/04/22 04:39:36;;;;;;;10.77;8.57;;;;;;;6.55;100.00;100653.19;4913670;29;20044;-77
2023/04/22 04:42:02;;;;;;;10.38;8.48;;;;;;;6.55;100.00;100650.53;4902984;29;20484;-77
2023/04/22 04:44:30;;;;;;;12.55;8.48;;;;;;;6.55;100.00;100645.28;4912382;29;20028;-77
2023/04/22 04:46:57;;;;;;;11.82;8.45;;;;;;;6.55;100.00;100650.53;4914175;29;20115;-78
2023/04/22 04:49:23;;;;;;;10.75;8.68;;;;;;;6.55;100.00;100649.66;4900602;29;20032;-78
2023/04/22 04:51:56;;;;;;;11.25;8.68;;;;;;;6.60;100.00;100658.38;4905259;29;20036;-78
2023/04/22 04:54:22;;;;;;;11.20;8.73;;;;;;;6.54;100.00;100654.03;4914708;29;20032;-78
2023/04/22 04:56:48;;;;;;;10.10;7.68;;;;;;;6.54;100.00;100655.81;4908102;29;20039;-78
2023/04/22 04:59:14;;;;;;;12.30;8.95;;;;;;;6.54;100.00;100663.69;4929765;29;20466;-78
2023/04/22 05:01:40;;;;;;;11.48;9.15;;;;;;;6.53;100.00;100656.66;4909450;29;20040;-78
2023/04/22 05:04:10;;;;;;;10.25;7.85;;;;;;;6.53;100.00;100659.31;4914823;29;20032;-78
2023/04/22 05:06:39;;;;;;;9.65;8.55;;;;;;;6.57;100.00;100661.03;4929826;29;20416;-78
2023/04/22 05:09:06;;;;;;;11.65;9.05;;;;;;;6.55;100.00;100653.19;4915257;29;20032;-78
2023/04/22 05:11:33;;;;;;;13.13;9.43;;;;;;;6.61;100.00;100657.50;4901869;29;20382;-78
2023/04/22 05:14:01;;;;;;;11.10;9.15;;;;;;;6.60;100.00;100659.28;4928675;29;20044;-78
2023/04/22 05:16:33;;;;;;;11.07;8.60;;;;;;;6.68;100.00;100675.00;4899088;29;20036;-76
2023/04/22 05:18:59;;;;;;;14.50;10.55;;;;;;;6.71;100.00;100668.81;4913619;29;20044;-77
2023/04/22 05:21:25;;;;;;;13.85;8.88;;;;;;;6.76;100.00;100667.88;4917175;29;20480;-77
2023/04/22 05:23:50;;;;;;;10.32;8.50;;;;;;;6.78;100.00;100652.09;4918301;29;20040;-77
2023/04/22 05:26:16;;;;;;;10.43;9.05;;;;;;;6.81;100.00;100660.81;4918367;29;20028;-77
2023/04/22 05:28:44;;;;;;;11.30;9.23;;;;;;;6.84;100.00;100650.25;4917045;29;20040;-77
2023/04/22 05:31:10;;;;;;;10.05;8.80;;;;;;;6.90;100.00;100662.50;4917155;29;20032;-77
2023/04/22 05:33:36;;;;;;;10.90;8.88;;;;;;;6.95;100.00;100651.91;4932783;29;20048;-77
2023/04/22 05:36:01;;;;;;;11.52;9.05;;;;;;;6.98;100.00;100658.03;4916804;29;20028;-78
2023/04/22 05:38:27;;;;;;;10.98;8.70;;;;;;;7.03;100.00;100660.63;4908555;29;20049;-77
2023/04/22 05:40:54;;;;;;;11.88;9.90;;;;;;;7.10;100.00;100663.16;4884503;29;20047;-77
2023/04/22 05:43:20;;;;;;;12.20;9.77;;;;;;;7.17;100.00;100658.72;4874990;29;20449;-77
2023/04/22 05:45:53;;;;;;;10.70;9.02;;;;;;;7.23;100.00;100656.00;4891190;29;20044;-77
2023/04/22 05:48:19;;;;;;;14.02;10.48;;;;;;;7.28;100.00;100653.31;4883644;29;20041;-77
2023/04/22 05:50:57;;;;;;;11.77;10.15;;;;;;;7.30;100.00;100652.41;4908915;29;20071;-77
2023/04/22 05:53:24;;;;;;;15.23;11.15;;;;;;;7.35;100.00;100649.72;4881837;29;20039;-77
2023/04/22 05:55:50;;;;;;;12.73;9.93;;;;;;;7.42;100.00;100659.31;4904988;29;20040;-77
2023/04/22 05:58:16;;;;;;;12.93;10.95;;;;;;;7.45;100.00;100659.28;4900094;29;20043;-77
2023/04/22 06:00:53;;;;;;;12.20;10.45;;;;;;;7.46;100.00;100645.19;4899987;29;20127;-77
2023/04/22 06:03:37;;;;;;;12.15;10.40;;;;;;;7.53;100.00;100638.97;4917811;29;20415;-77
2023/04/22 06:06:03;;;;;;;12.13;10.77;;;;;;;7.63;100.00;100639.72;4873305;29;20045;-77
2023/04/22 06:08:30;;;;;;;16.70;11.60;;;;;;;7.72;100.00;100636.97;4909283;29;20032;-77
2023/04/22 06:10:55;;;;;;;12.93;11.07;;;;;;;7.82;100.00;100639.50;4893449;29;20163;-77
2023/04/22 06:13:23;;;;;;;13.00;10.35;;;;;;;7.90;100.00;100635.84;4894763;29;20551;-77
2023/04/22 06:15:49;;;;;;;15.60;12.48;;;;;;;8.01;100.00;100635.69;4903330;29;20131;-77
2023/04/22 06:18:15;;;;;;;14.77;11.88;;;;;;;8.11;100.00;100631.13;4917535;29;20602;-78
2023/04/22 06:20:41;;;;;;;13.65;11.40;;;;;;;8.19;100.00;100629.28;4917210;29;20457;-78
2023/04/22 06:23:06;;;;;;;13.63;12.18;;;;;;;8.31;100.00;100637.00;4900435;29;20055;-78
2023/04/22 06:25:32;;;;;;;16.27;12.65;;;;;;;8.42;100.00;100628.06;4904340;29;20043;-78
2023/04/22 06:27:58;;;;;;;15.20;12.18;;;;;;;8.54;100.00;100626.09;4916303;29;20036;-77
2023/04/22 06:30:24;;;;;;;18.02;14.13;;;;;;;8.66;100.00;100618.88;4900508;29;20032;-78
2023/04/22 06:32:51;;;;;;;16.80;13.57;;;;;;;8.82;100.00;100617.69;4899983;29;20043;-78
2023/04/22 06:35:16;;;;;;;15.75;13.68;;;;;;;8.96;100.00;100622.72;4900312;29;20139;-78
2023/04/22 06:37:42;;;;;;;13.85;12.25;;;;;;;9.11;100.00;100627.69;4904358;29;20131;-78
2023/04/22 06:40:13;;;;;;;16.38;13.27;;;;;;;9.23;100.00;100624.81;4906659;29;20033;-78
2023/04/22 06:42:59;;;;;;;16.60;12.90;;;;;;;9.36;100.00;100625.44;4915617;29;20043;-78
2023/04/22 06:45:42;;;;;;;17.38;12.43;;;;;;;9.47;100.00;100627.88;4904168;29;20086;-78
2023/04/22 06:48:20;;;;;;;21.67;13.98;;;;;;;9.58;100.00;100620.56;4898811;29;20056;-78
2023/04/22 06:51:09;;;;;;;15.15;13.23;;;;;;;9.78;100.00;100619.28;4909761;29;20056;-78
2023/04/22 06:53:34;;;;;;;15.45;12.60;;;;;;;9.84;100.00;100614.75;4894971;29;20048;-78
2023/04/22 06:56:00;;;;;;;14.52;12.02;;;;;;;9.91;100.00;100607.50;4904382;29;20404;-78
2023/04/22 06:58:25;;;;;;;53.05;13.93;;;;;;;10.02;100.00;100599.34;4931724;28;20044;-78
2023/04/22 07:00:52;;;;;;;17.27;11.23;;;;;;;10.17;100.00;100601.63;4891192;29;20028;-78
2023/04/22 07:03:17;;;;;;;15.50;12.40;;;;;;;10.32;100.00;100605.72;4911936;29;20068;-78
2023/04/22 07:05:47;;;;;;;15.13;11.63;;;;;;;10.48;100.00;100603.53;4893862;29;20036;-78
2023/04/22 07:08:13;;;;;;;12.88;11.02;;;;;;;10.64;100.00;100615.50;4893952;29;20373;-78
2023/04/22 07:10:38;;;;;;;15.18;10.50;;;;;;;10.78;100.00;100617.78;4926519;28;20044;-78
2023/04/22 07:13:26;;;;;;;19.00;11.95;;;;;;;10.90;100.00;100603.31;4925489;29;20067;-78
2023/04/22 07:15:51;;;;;;;12.95;10.38;;;;;;;10.98;99.69;100609.31;4900169;29;20039;-78
2023/04/22 07:18:17;;;;;;;14.50;10.43;;;;;;;11.04;99.46;100609.13;4917086;29;20039;-79
2023/04/22 07:20:43;;;;;;;12.85;10.18;;;;;;;11.07;98.25;100606.38;4899716;29;20123;-79
2023/04/22 07:23:08;;;;;;;16.55;10.93;;;;;;;11.07;98.81;100594.91;4907905;29;20029;-79
2023/04/22 07:25:33;;;;;;;13.40;10.63;;;;;;;11.03;97.69;100595.91;4899665;29;20037;-79
2023/04/22 07:27:59;;;;;;;12.65;8.82;;;;;;;11.04;96.36;100598.53;4915692;29;20440;-79
2023/04/22 07:30:25;;;;;;;13.50;10.65;;;;;;;11.07;98.24;100600.22;4915312;29;20047;-79
2023/04/22 07:32:51;;;;;;;20.20;10.98;;;;;;;11.13;98.51;100605.38;4890512;29;20535;-79
2023/04/22 07:35:17;;;;;;;17.58;11.38;;;;;;;11.21;98.21;100606.00;4916555;29;20043;-79
2023/04/22 07:37:42;;;;;;;17.23;11.10;;;;;;;11.27;97.41;100607.59;4912539;29;20443;-79
2023/04/22 07:40:10;;;;;;;16.63;11.63;;;;;;;11.37;98.00;100606.44;4897664;29;20036;-79
2023/04/22 07:42:38;;;;;;;16.00;11.43;;;;;;;11.46;97.63;100600.00;4880323;29;20048;-76
2023/04/22 07:45:04;;;;;;;15.60;11.55;;;;;;;11.56;95.54;100602.31;4915707;29;20036;-76
2023/04/22 07:47:29;;;;;;;15.50;10.88;;;;;;;11.63;94.44;100592.41;4883109;29;20119;-76
2023/04/22 07:49:55;;;;;;;14.35;11.68;;;;;;;11.80;95.90;100605.16;4902049;29;20456;-76
2023/04/22 07:52:20;;;;;;;18.35;12.00;;;;;;;11.91;94.96;100610.16;4887555;29;20074;-76
2023/04/22 07:54:46;;;;;;;15.80;12.07;;;;;;;12.01;94.45;100604.50;4872406;29;20090;-76
2023/04/22 07:57:11;;;;;;;14.80;11.05;;;;;;;12.14;93.87;100596.16;4883253;29;20044;-76
2023/04/22 07:59:37;;;;;;;12.98;10.38;;;;;;;12.24;91.99;100579.91;4911118;29;20040;-76
2023/04/22 08:02:02;;;;;;;13.98;10.98;;;;;;;12.39;93.77;100575.88;4916056;29;20111;-76
2023/04/22 08:04:28;;;;;;;15.07;10.88;;;;;;;12.56;94.12;100575.31;4898731;29;20075;-76
2023/04/22 08:06:53;;;;;;;15.15;11.05;;;;;;;12.69;93.51;100573.94;4883463;29;20079;-76
2023/04/22 08:09:19;;;;;;;15.10;10.75;;;;;;;12.76;90.42;100573.72;4915804;29;20032;-76
2023/04/22 08:11:44;;;;;;;14.75;10.55;;;;;;;12.87;91.43;100574.22;4912664;29;20032;-76
2023/04/22 08:14:10;;;;;;;14.40;10.82;;;;;;;12.96;92.22;100568.59;4902868;29;20537;-76
2023/04/22 08:16:37;;;;;;;12.93;11.00;;;;;;;13.04;89.53;100566.50;4915797;29;20024;-76
2023/04/22 08:19:02;;;;;;;17.88;10.90;;;;;;;13.19;88.75;100565.06;4910152;29;20044;-76
2023/04/22 08:21:28;;;;;;;12.60;10.20;;;;;;;13.31;90.18;100556.69;4906499;29;20035;-76
2023/04/22 08:23:53;;;;;;;13.48;9.57;;;;;;;13.43;89.55;100551.81;4913744;29;20484;-76
2023/04/22 08:26:19;;;;;;;12.57;9.48;;;;;;;13.58;89.29;100558.34;4904660;29;20039;-76
2023/04/22 08:28:46;;;;;;;12.00;8.55;;;;;;;13.64;87.38;100556.28;4885214;29;20044;-76
2023/04/22 08:31:11;;;;;;;10.07;8.30;;;;;;;13.64;83.06;100550.97;4902866;29;20059;-76
2023/04/22 08:33:39;;;;;;;13.60;8.30;;;;;;;13.67;85.60;100557.97;4915653;29;20076;-76
2023/04/22 08:36:05;;;;;;;10.27;7.55;;;;;;;13.72;86.41;100556.00;4898764;29;20025;-76
2023/04/22 08:38:30;;;;;;;9.10;7.72;;;;;;;13.73;83.55;100552.44;4921005;29;20066;-77
2023/04/22 08:40:57;;;;;;;9.40;7.35;;;;;;;13.73;82.87;100553.28;4929913;28;20411;-77
2023/04/22 08:43:25;;;;;;;12.77;8.10;;;;;;;13.84;84.73;100557.31;4906261;29;20131;-77
2023/04/22 08:45:51;;;;;;;17.15;7.78;;;;;;;13.90;83.25;100549.94;4909620;29;20377;-77
2023/04/22 08:48:18;;;;;;;13.05;8.25;;;;;;;14.02;83.83;100542.38;4907771;29;20051;-77
2023/04/22 08:50:46;;;;;;;13.32;9.18;;;;;;;14.19;85.80;100532.78;4908195;29;20060;-77
2023/04/22 08:53:13;;;;;;;10.13;7.90;;;;;;;14.37;83.01;100524.94;4913198;29;20384;-77
2023/04/22 08:55:42;;;;;;;12.13;7.90;;;;;;;14.51;80.06;100525.19;4905084;29;20039;-76
2023/04/22 08:58:10;;;;;;;8.77;7.30;;;;;;;14.49;79.16;100513.78;4931918;29;20116;-77
2023/04/22 09:00:36;;;;;;;11.45;7.03;;;;;;;14.54;80.42;100509.16;4917614;29;20097;-77
2023/04/22 09:03:05;;;;;;;12.15;7.57;;;;;;;14.70;80.76;100503.13;4906533;29;20131;-81
2023/04/22 09:05:36;;;;;;;8.82;7.07;;;;;;;14.92;79.11;100503.91;4918663;29;20036;-80
2023/04/22 09:08:02;;;;;;;10.88;7.80;;;;;;;14.99;77.28;100515.16;4919790;29;20040;-80
2023/04/22 09:10:31;;;;;;;8.85;6.00;;;;;;;14.97;76.75;100504.56;4918017;29;20395;-80
2023/04/22 09:12:57;;;;;;;8.60;6.55;;;;;;;15.00;76.41;100496.41;4916325;29;20040;-80
2023/04/22 09:15:24;;;;;;;12.48;7.15;;;;;;;15.14;76.53;100505.59;4918856;29;20032;-80
2023/04/22 09:17:52;;;;;;;14.02;6.93;;;;;;;15.24;77.08;100498.88;4919503;29;20447;-80
2023/04/22 09:20:24;;;;;;;10.70;7.32;;;;;;;15.28;74.97;100495.13;4918932;29;20028;-80
2023/04/22 09:22:50;;;;;;;14.82;8.10;;;;;;;15.34;76.48;100502.00;4912019;29;20100;-80
2023/04/22 09:25:16;;;;;;;11.30;7.90;;;;;;;15.39;75.81;100495.50;4911560;29;20021;-80
2023/04/22 09:27:42;;;;;;;10.68;7.32;;;;;;;15.44;73.90;100493.47;4917716;29;20444;-80
2023/04/22 09:30:08;;;;;;;12.00;7.25;;;;;;;15.60;75.69;100492.72;4918978;29;20059;-80
2023/04/22 09:32:34;;;;;;;9.57;6.78;;;;;;;15.81;73.79;100496.22;4917683;29;20044;-80
2023/04/22 09:35:00;;;;;;;8.75;6.50;;;;;;;15.95;72.50;100490.16;4919029;29;20092;-81
2023/04/22 09:37:26;;;;;;;10.05;5.90;;;;;;;16.12;72.95;100484.84;4901984;29;20048;-80
2023/04/22 09:39:53;;;;;;;8.93;6.13;;;;;;;16.22;72.82;100494.16;4917469;29;20505;-80
2023/04/22 09:42:20;;;;;;;10.32;6.18;;;;;;;16.33;69.85;100493.59;4902244;29;20059;-80
2023/04/22 09:44:47;;;;;;;7.97;6.05;;;;;;;16.43;69.95;100489.50;4892418;29;20456;-80
2023/04/22 09:47:12;;;;;;;10.05;6.97;;;;;;;16.51;70.20;100489.94;4918985;29;20119;-80
2023/04/22 09:49:38;;;;;;;9.18;6.43;;;;;;;16.64;69.45;100489.31;4891375;29;20028;-80
2023/04/22 09:52:04;;;;;;;9.35;6.53;;;;;;;16.75;70.32;100487.81;4892610;29;20058;-80
2023/04/22 09:54:30;;;;;;;8.98;5.90;;;;;;;16.96;69.15;100490.31;4903788;29;20104;-79
2023/04/22 09:56:56;;;;;;;13.18;6.55;;;;;;;16.97;68.14;100500.94;4903837;29;20477;-78
2023/04/22 09:59:24;;;;;;;8.48;5.78;;;;;;;16.95;67.48;100496.59;4893806;29;20511;-78
2023/04/22 10:01:55;;;;;;;8.07;5.65;;;;;;;16.96;67.96;100492.97;4915678;29;20055;-78
2023/04/22 10:04:22;;;;;;;10.02;5.40;;;;;;;17.05;67.99;100499.66;4891487;29;20036;-79
2023/04/22 10:06:48;;;;;;;10.73;5.22;;;;;;;17.11;66.40;100492.16;4916130;29;20032;-79
2023/04/22 10:09:17;;;;;;;7.47;5.47;;;;;;;17.19;67.66;100487.25;4874427;29;20481;-79
2023/04/22 10:11:42;;;;;;;11.13;5.40;;;;;;;17.40;67.83;100487.00;4914633;29;20031;-79
2023/04/22 10:14:13;;;;;;;10.32;5.57;;;;;;;17.56;65.22;100492.38;4890502;29;20044;-79
2023/04/22 10:16:40;;;;;;;11.23;5.60;;;;;;;17.66;65.83;100495.41;4917954;29;20510;-79
2023/04/22 10:19:09;;;;;;;7.25;5.82;;;;;;;17.54;63.39;100492.44;4901191;29;20028;-79
2023/04/22 10:21:38;;;;;;;9.25;5.97;;;;;;;17.48;63.09;100490.13;4917757;29;20476;-79
2023/04/22 10:24:04;;;;;;;7.40;5.57;;;;;;;17.46;65.52;100489.34;4901318;29;20039;-79
2023/04/22 10:26:55;;;;;;;11.48;5.88;;;;;;;17.60;66.87;100507.28;4891824;29;20135;-79
2023/04/22 10:29:21;;;;;;;9.75;5.85;;;;;;;17.70;65.69;100507.63;4916926;29;20471;-79
2023/04/22 10:32:24;;;;;;;8.30;5.50;;;;;;;17.70;64.36;100504.97;4917756;29;20024;-79
2023/04/22 10:35:06;;;;;;;8.75;5.10;;;;;;;17.68;64.87;100504.19;4909296;29;20492;-79
2023/04/22 10:37:33;;;;;;;9.55;5.55;;;;;;;17.60;64.00;100499.25;4897216;29;20044;-79
2023/04/22 10:40:09;;;;;;;7.45;5.30;;;;;;;17.56;64.15;100505.75;4873849;29;20121;-79
2023/04/22 10:42:38;;;;;;;7.90;5.60;;;;;;;17.62;62.17;100500.03;4910243;29;20125;-79
2023/04/22 10:45:04;;;;;;;6.88;5.32;;;;;;;17.64;63.52;100495.47;4917947;29;20111;-79
2023/04/22 10:47:31;;;;;;;8.00;5.75;;;;;;;17.70;63.86;100497.78;4904063;29;20059;-79
2023/04/22 10:50:11;;;;;;;10.07;5.45;;;;;;;17.67;63.32;100483.72;4902096;29;20095;-79
2023/04/22 10:52:38;;;;;;;9.40;5.57;;;;;;;17.63;63.91;100481.22;4916601;29;20043;-79
2023/04/22 10:55:03;;;;;;;8.00;5.70;;;;;;;17.71;65.63;100480.78;4886271;29;20075;-79
2023/04/22 10:57:36;;;;;;;7.28;5.30;;;;;;;17.75;63.29;100478.78;4910422;29;20044;-79
2023/04/22 11:00:20;;;;;;;5.97;4.97;;;;;;;17.65;62.43;100494.50;4913150;29;20055;-79
2023/04/22 11:03:06;;;;;;;9.60;5.25;;;;;;;17.45;65.05;100495.63;4898328;29;20040;-80
2023/04/22 11:05:34;;;;;;;10.50;5.80;;;;;;;17.29;63.05;100503.66;4893736;29;20048;-78
2023/04/22 11:08:19;;;;;;;11.52;5.10;;;;;;;17.07;64.09;100506.66;4908994;29;20106;-78
2023/04/22 11:10:47;;;;;;;6.07;4.20;;;;;;;16.87;63.76;100507.72;4916049;29;20456;-79
2023/04/22 11:13:18;;;;;;;5.55;4.38;;;;;;;16.73;64.13;100510.22;4896183;29;20031;-79
2023/04/22 11:15:53;;;;;;;6.95;4.35;;;;;;;16.54;65.94;100510.31;4898773;29;20048;-79
2023/04/22 11:18:22;;;;;;;6.05;4.30;;;;;;;16.39;67.19;100503.09;4909440;29;20040;-79
2023/04/22 11:20:49;;;;;;;7.68;4.30;;;;;;;16.28;67.26;100503.66;4916719;29;20066;-79